Portada
METAR-TAF:

METAR-TAF

Aeroports :

Rouen, França

latitud: 49-23N, longitud: 001-11E, altitud: 157 m

Observació

L'informe es va fer fa 38 minuts, a les 20:00 UTC
Vent 7 kt del Nord
Temperatura 20°C
Humitat 56%
Pressió 1018 hPa
Visibilitat 10 km o més
sense núvols per sota de 1500 mi sense presència de cumulonimbus.

METAR: LFOP 012000Z AUTO 36007KT CAVOK 20/11 Q1018 NOSIG

Hora: 22:38 (20:38 UTC)

Pronòstic

L'informe es va fer fa 3 hores i 38 minuts, a les 17:00 UTC
Pronòstic vàlid del 01 a les 18 UTC al 02 a les 18 UTC
Vent 8 kt del Est/Nord-Est
Visibilitat 10 km o més
sense núvols per sota de 1500 mi sense presència de cumulonimbus.
Evolucionant progressivament
l' 02 a les 08 UTC al 02 a les 10 UTC
Vent 12 kt amb direcció variable

TAF: LFOP 011700Z 0118/0218 06008KT CAVOK BECMG 0208/0210 VRB12KT

Observacions i pronòstics meteorològics de més de 4000 aeroports (METAR i TAF).

Les estacions disponibles són els punts grocs i vermells al mapa.

Posi el ratolí al punt desitjat per veure el nom de l'estació.

Feu clic per veure les observacions i els pronòstics meteorològics.

Per canviar el mapa: feu clic els botons verds amb una creu de color negre per apropar; al botó verd amb un guió per allunyar la imatge; o en les fletxes verdes per a mapes adjacents.


METAR-TAF: